createdAt,value
2023-10-31T00:02:42.963Z,18.50
2023-10-31T00:07:46.087Z,15.03
2023-10-31T00:12:49.769Z,18.27
2023-10-31T00:17:53.650Z,18.77
2023-10-31T00:22:56.937Z,17.17
2023-10-31T00:27:59.975Z,16.83
2023-10-31T00:33:03.010Z,18.33
2023-10-31T00:38:06.214Z,18.23
2023-10-31T00:43:09.601Z,19.20
2023-10-31T00:48:12.824Z,16.97
2023-10-31T00:53:16.797Z,20.27
2023-10-31T00:58:19.891Z,20.70
2023-10-31T01:03:23.220Z,19.07
2023-10-31T01:08:26.768Z,19.27
2023-10-31T01:13:30.007Z,15.67
2023-10-31T01:18:33.047Z,14.87
2023-10-31T01:23:36.037Z,17.93
2023-10-31T01:28:39.145Z,18.80
2023-10-31T01:33:42.501Z,16.67
2023-10-31T01:38:47.766Z,20.00
2023-10-31T01:43:51.067Z,19.47
2023-10-31T01:48:55.049Z,19.40
2023-10-31T01:53:58.542Z,17.00
2023-10-31T01:59:02.210Z,13.57
2023-10-31T02:04:05.361Z,16.20
2023-10-31T02:09:08.621Z,18.97
2023-10-31T02:14:11.984Z,12.97
2023-10-31T02:19:20.406Z,13.07
2023-10-31T02:24:23.739Z,12.93
2023-10-31T02:29:26.824Z,15.17
2023-10-31T02:34:29.850Z,12.37
2023-10-31T02:39:32.968Z,13.80
2023-10-31T02:44:35.899Z,13.57
2023-10-31T02:49:39.000Z,14.77
2023-10-31T02:54:42.132Z,13.00
2023-10-31T02:59:45.145Z,13.57
2023-10-31T03:04:48.082Z,14.73
2023-10-31T03:09:51.435Z,19.53
2023-10-31T03:14:54.564Z,13.40
2023-10-31T03:19:57.747Z,11.43
2023-10-31T03:25:00.772Z,12.83
2023-10-31T03:30:04.274Z,12.50
2023-10-31T03:35:08.024Z,9.97
2023-10-31T03:40:11.605Z,14.80
2023-10-31T03:45:14.637Z,14.07
2023-10-31T03:50:17.877Z,12.33
2023-10-31T03:55:21.181Z,9.03
2023-10-31T04:00:24.654Z,12.77
2023-10-31T04:05:27.597Z,15.97
2023-10-31T04:10:30.615Z,10.93
2023-10-31T04:15:35.495Z,10.23
2023-10-31T04:20:38.652Z,14.53
2023-10-31T04:25:41.785Z,10.53
2023-10-31T04:30:44.881Z,11.70
2023-10-31T04:35:47.862Z,10.80
2023-10-31T04:40:50.919Z,15.03
2023-10-31T04:45:54.001Z,12.33
2023-10-31T04:50:58.193Z,11.73
2023-10-31T04:56:01.391Z,9.13
2023-10-31T05:01:09.188Z,8.53
2023-10-31T05:06:12.024Z,10.30
2023-10-31T05:11:15.271Z,8.67
2023-10-31T05:16:18.694Z,10.93
2023-10-31T05:21:22.252Z,10.93
2023-10-31T05:26:25.371Z,9.67
2023-10-31T05:31:28.588Z,9.67
2023-10-31T05:36:32.001Z,8.67
2023-10-31T05:41:38.379Z,9.87
2023-10-31T05:46:42.694Z,10.03
2023-10-31T05:51:46.065Z,8.67
2023-10-31T05:56:49.862Z,8.13
2023-10-31T06:01:53.582Z,8.00
2023-10-31T06:06:57.217Z,9.60
2023-10-31T06:12:01.320Z,9.20
2023-10-31T06:17:04.474Z,8.03
2023-10-31T06:22:07.733Z,7.80
2023-10-31T06:27:10.887Z,7.37
2023-10-31T06:32:14.526Z,10.80
2023-10-31T06:37:18.685Z,8.50
2023-10-31T06:42:21.902Z,8.97
2023-10-31T06:47:25.345Z,14.07
2023-10-31T06:52:28.977Z,7.40
2023-10-31T06:57:32.410Z,10.97
2023-10-31T07:02:36.716Z,8.70
2023-10-31T07:07:39.890Z,8.27
2023-10-31T07:12:43.412Z,6.70
2023-10-31T07:17:46.481Z,7.43
2023-10-31T07:22:50.364Z,6.50
2023-10-31T07:27:53.640Z,8.27
2023-10-31T07:32:56.979Z,10.00
2023-10-31T07:38:00.233Z,8.13
2023-10-31T07:43:03.705Z,9.20
2023-10-31T07:48:07.160Z,6.53
2023-10-31T07:53:11.041Z,8.27
2023-10-31T07:58:14.244Z,8.90
2023-10-31T08:03:17.886Z,8.23
2023-10-31T08:08:21.295Z,7.77
2023-10-31T08:13:24.878Z,7.57
2023-10-31T08:18:28.336Z,7.60
2023-10-31T08:23:31.419Z,8.13
2023-10-31T08:28:34.765Z,11.80
2023-10-31T08:33:38.971Z,10.63
2023-10-31T08:38:42.765Z,7.43
2023-10-31T08:43:45.855Z,9.60
2023-10-31T08:48:49.078Z,9.23
2023-10-31T08:53:52.038Z,12.53
2023-10-31T08:59:30.832Z,11.20
2023-10-31T09:05:10.523Z,8.97
2023-10-31T09:10:31.327Z,10.30
2023-10-31T09:15:34.749Z,9.67
2023-10-31T09:20:38.189Z,8.60
2023-10-31T09:25:41.636Z,5.33
2023-10-31T09:30:46.432Z,7.33
2023-10-31T09:35:50.294Z,9.57
2023-10-31T09:40:53.876Z,6.93
2023-10-31T09:45:59.508Z,6.77
2023-10-31T09:51:04.024Z,6.37
2023-10-31T09:56:08.721Z,7.73
2023-10-31T10:01:12.717Z,5.83
2023-10-31T10:06:16.460Z,10.43
2023-10-31T10:11:20.520Z,9.90
2023-10-31T10:16:34.670Z,5.97
2023-10-31T10:21:58.469Z,6.37
2023-10-31T10:27:01.710Z,6.53
2023-10-31T10:32:09.693Z,5.97
2023-10-31T10:37:13.093Z,5.40
2023-10-31T10:42:49.383Z,6.10
2023-10-31T10:47:56.244Z,6.43
2023-10-31T10:53:12.210Z,6.73
2023-10-31T10:58:29.271Z,8.80
2023-10-31T11:03:34.381Z,8.13
2023-10-31T11:08:39.282Z,11.07
2023-10-31T11:13:44.051Z,7.97
2023-10-31T11:18:47.997Z,8.80
2023-10-31T11:24:01.939Z,9.30
2023-10-31T11:29:08.868Z,9.50
2023-10-31T11:34:12.105Z,9.53
2023-10-31T11:39:23.121Z,10.17
2023-10-31T11:44:29.455Z,8.73
2023-10-31T11:49:51.618Z,9.80
2023-10-31T11:54:55.460Z,7.13
2023-10-31T11:59:58.625Z,6.33
2023-10-31T12:05:14.794Z,5.30
2023-10-31T12:10:25.589Z,4.50
2023-10-31T12:15:29.757Z,3.80
2023-10-31T12:20:33.992Z,5.17
2023-10-31T12:25:50.812Z,4.43
2023-10-31T12:30:59.603Z,2.77
2023-10-31T12:36:03.264Z,2.17
2023-10-31T12:41:06.686Z,3.40
2023-10-31T12:46:30.881Z,2.57
2023-10-31T12:51:34.132Z,2.60
2023-10-31T12:56:42.092Z,2.30
2023-10-31T13:01:45.851Z,3.17
2023-10-31T13:07:04.341Z,2.20
2023-10-31T13:12:09.383Z,4.47
2023-10-31T13:17:12.891Z,3.53
2023-10-31T13:22:16.196Z,2.60
2023-10-31T13:27:20.091Z,2.67
2023-10-31T13:32:23.356Z,1.97
2023-10-31T13:37:27.453Z,2.93
2023-10-31T13:42:30.719Z,1.97
2023-10-31T13:47:34.428Z,2.23
2023-10-31T13:52:39.569Z,4.37
2023-10-31T13:57:42.821Z,1.77
2023-10-31T14:02:46.263Z,1.87
2023-10-31T14:07:50.481Z,2.67
2023-10-31T14:12:54.332Z,1.83
2023-10-31T14:17:58.241Z,2.20
2023-10-31T14:23:02.176Z,2.00
2023-10-31T14:28:05.706Z,0.80
2023-10-31T14:33:09.745Z,1.73
2023-10-31T14:38:13.191Z,1.97
2023-10-31T14:43:19.821Z,1.30
2023-10-31T14:48:23.112Z,2.57
2023-10-31T14:53:26.642Z,1.87
2023-10-31T14:58:29.754Z,3.90
2023-10-31T15:03:33.579Z,1.80
2023-10-31T15:08:37.291Z,2.77
2023-10-31T15:13:41.019Z,2.23
2023-10-31T15:18:50.851Z,3.60
2023-10-31T15:23:54.930Z,4.37
2023-10-31T15:28:58.156Z,2.93
2023-10-31T15:34:01.248Z,2.90
2023-10-31T15:39:04.538Z,2.67
2023-10-31T15:44:08.426Z,2.47
2023-10-31T15:49:11.535Z,3.30
2023-10-31T15:54:14.804Z,2.70
2023-10-31T15:59:18.063Z,2.50
2023-10-31T16:04:22.053Z,1.80
2023-10-31T16:09:25.099Z,4.70
2023-10-31T16:14:28.562Z,4.33
2023-10-31T16:19:31.787Z,5.47
2023-10-31T16:24:35.117Z,4.43
2023-10-31T16:29:38.182Z,3.70
2023-10-31T16:34:44.848Z,4.03
2023-10-31T16:39:48.394Z,5.40
2023-10-31T16:44:51.653Z,11.10
2023-10-31T16:49:55.615Z,4.03
2023-10-31T16:54:58.669Z,4.47
2023-10-31T17:00:01.848Z,3.67
2023-10-31T17:05:05.654Z,2.10
2023-10-31T17:10:09.412Z,2.83
2023-10-31T17:15:12.945Z,3.30
2023-10-31T17:20:16.862Z,2.23
2023-10-31T17:25:20.210Z,3.17
2023-10-31T17:30:23.600Z,2.40
2023-10-31T17:35:26.852Z,2.47
2023-10-31T17:40:31.689Z,3.13
2023-10-31T17:45:35.056Z,2.73
2023-10-31T17:50:38.567Z,4.07
2023-10-31T17:55:45.378Z,2.30
2023-10-31T18:00:48.822Z,2.53
2023-10-31T18:05:52.157Z,2.13
2023-10-31T18:10:55.947Z,1.73
2023-10-31T18:15:59.187Z,2.93
2023-10-31T18:21:02.913Z,2.60
2023-10-31T18:26:06.990Z,3.40
2023-10-31T18:31:11.076Z,2.43
2023-10-31T18:36:21.350Z,2.53
2023-10-31T18:41:30.859Z,3.33
2023-10-31T18:46:34.398Z,2.47
2023-10-31T18:51:37.470Z,3.13
2023-10-31T18:56:40.753Z,3.33
2023-10-31T19:01:45.567Z,3.47
2023-10-31T19:06:48.894Z,4.20
2023-10-31T19:11:52.932Z,2.00
2023-10-31T19:16:57.459Z,1.93
2023-10-31T19:22:01.305Z,2.27
2023-10-31T19:27:05.695Z,2.20
2023-10-31T19:32:09.612Z,1.23
2023-10-31T19:37:13.794Z,3.47
2023-10-31T19:42:17.736Z,2.53
2023-10-31T19:47:22.024Z,1.90
2023-10-31T19:52:25.853Z,1.20
2023-10-31T19:57:30.176Z,3.03
2023-10-31T20:02:34.767Z,0.90
2023-10-31T20:12:56.337Z,1.30
2023-10-31T20:18:02.041Z,0.63
2023-10-31T20:23:06.039Z,0.40
2023-10-31T20:28:09.869Z,0.77
2023-10-31T20:33:14.719Z,1.47
2023-10-31T20:38:19.617Z,0.83
2023-10-31T20:43:23.817Z,1.93
2023-10-31T20:48:28.569Z,7.63
2023-10-31T20:53:32.181Z,3.77
2023-10-31T20:58:36.337Z,0.90
2023-10-31T21:03:40.502Z,1.43
2023-10-31T21:08:44.395Z,1.80
2023-10-31T21:13:48.953Z,4.83
2023-10-31T21:18:53.510Z,0.20
2023-10-31T21:23:57.420Z,1.63
2023-10-31T21:29:02.255Z,1.27
2023-10-31T21:34:06.575Z,1.00
2023-10-31T21:39:11.319Z,1.23
2023-10-31T21:44:14.776Z,1.37
2023-10-31T21:49:18.258Z,0.97
2023-10-31T21:54:22.370Z,1.03
2023-10-31T21:59:25.517Z,1.53
2023-10-31T22:04:28.829Z,1.80
2023-10-31T22:09:32.331Z,1.30
2023-10-31T22:14:35.458Z,1.27
2023-10-31T22:19:38.702Z,1.63
2023-10-31T22:24:41.881Z,0.60
2023-10-31T22:29:45.098Z,1.00
2023-10-31T22:34:48.377Z,0.57
2023-10-31T22:39:53.742Z,1.40
2023-10-31T22:44:57.124Z,1.50
2023-10-31T22:50:01.657Z,2.10
2023-10-31T22:55:05.699Z,0.97
2023-10-31T23:00:14.492Z,1.03
2023-10-31T23:05:17.750Z,0.43
2023-10-31T23:10:21.813Z,0.77
2023-10-31T23:15:24.928Z,0.37
2023-10-31T23:20:28.305Z,0.60
2023-10-31T23:25:31.580Z,1.07
2023-10-31T23:30:35.078Z,1.03
2023-10-31T23:35:38.386Z,1.03
2023-10-31T23:40:47.170Z,0.87
2023-10-31T23:45:50.281Z,0.77
2023-10-31T23:50:53.367Z,0.90
2023-10-31T23:55:56.891Z,6.80
